createdAt,value
2022-11-14T00:00:30.681Z,10.07
2022-11-14T00:03:02.566Z,9.87
2022-11-14T00:05:32.516Z,9.97
2022-11-14T00:08:02.164Z,10.06
2022-11-14T00:10:31.631Z,10.13
2022-11-14T00:13:02.443Z,10.39
2022-11-14T00:15:32.163Z,10.34
2022-11-14T00:18:03.390Z,10.13
2022-11-14T00:20:34.238Z,10.05
2022-11-14T00:23:03.756Z,10.05
2022-11-14T00:25:33.744Z,9.88
2022-11-14T00:28:04.665Z,10.29
2022-11-14T00:30:34.269Z,10.36
2022-11-14T00:33:03.530Z,10.14
2022-11-14T00:35:32.610Z,10.32
2022-11-14T00:38:02.086Z,10.31
2022-11-14T00:40:31.710Z,10.39
2022-11-14T00:43:04.690Z,10.33
2022-11-14T00:45:35.796Z,10.03
2022-11-14T00:48:05.341Z,10.34
2022-11-14T00:50:34.868Z,10.33
2022-11-14T00:53:08.467Z,10.06
2022-11-14T00:55:38.354Z,10.27
2022-11-14T00:58:08.060Z,10.22
2022-11-14T01:00:39.389Z,10.05
2022-11-14T01:03:09.112Z,10.18
2022-11-14T01:05:43.490Z,10.36
2022-11-14T01:08:13.142Z,10.25
2022-11-14T01:10:43.241Z,10.17
2022-11-14T01:13:13.051Z,10.23
2022-11-14T01:15:45.402Z,10.39
2022-11-14T01:18:16.427Z,9.98
2022-11-14T01:20:47.311Z,10.21
2022-11-14T01:23:18.180Z,10.16
2022-11-14T01:25:47.728Z,10.24
2022-11-14T01:28:19.380Z,10.26
2022-11-14T01:30:50.561Z,10.39
2022-11-14T01:33:22.599Z,10.06
2022-11-14T01:35:52.020Z,10.11
2022-11-14T01:38:21.828Z,10.14
2022-11-14T01:40:51.443Z,10.15
2022-11-14T01:43:30.427Z,10.15
2022-11-14T01:46:03.592Z,9.70
2022-11-14T01:48:37.968Z,9.94
2022-11-14T01:51:19.072Z,10.07
2022-11-14T01:53:50.072Z,10.11
2022-11-14T01:56:22.886Z,10.00
2022-11-14T01:58:57.758Z,9.80
2022-11-14T02:01:29.230Z,9.77
2022-11-14T02:03:59.873Z,9.85
2022-11-14T02:06:31.805Z,10.10
2022-11-14T02:09:03.731Z,10.17
2022-11-14T02:11:36.470Z,10.35
2022-11-14T02:14:06.626Z,9.91
2022-11-14T02:16:38.063Z,10.03
2022-11-14T02:19:08.074Z,9.97
2022-11-14T02:21:39.168Z,9.83
2022-11-14T02:24:11.250Z,9.76
2022-11-14T02:26:40.935Z,9.66
2022-11-14T02:29:11.821Z,9.59
2022-11-14T02:31:41.256Z,9.79
2022-11-14T02:34:11.218Z,10.09
2022-11-14T02:36:42.510Z,9.84
2022-11-14T02:39:12.728Z,10.01
2022-11-14T02:41:42.394Z,10.01
2022-11-14T02:44:12.024Z,10.07
2022-11-14T02:46:41.780Z,9.98
2022-11-14T02:49:11.724Z,10.16
2022-11-14T02:51:42.895Z,9.84
2022-11-14T02:54:12.549Z,9.84
2022-11-14T02:56:43.898Z,9.86
2022-11-14T02:59:13.988Z,9.99
2022-11-14T03:01:43.581Z,9.91
2022-11-14T03:04:13.308Z,9.92
2022-11-14T03:06:47.007Z,9.88
2022-11-14T03:09:16.667Z,9.65
2022-11-14T03:11:46.127Z,9.68
2022-11-14T03:14:15.612Z,9.75
2022-11-14T03:16:47.859Z,10.22
2022-11-14T03:19:17.039Z,10.13
2022-11-14T03:21:48.127Z,10.27
2022-11-14T03:24:17.601Z,9.93
2022-11-14T03:26:47.552Z,10.06
2022-11-14T03:29:17.140Z,10.13
2022-11-14T03:31:46.779Z,10.18
2022-11-14T03:34:16.284Z,10.25
2022-11-14T03:36:47.840Z,10.15
2022-11-14T03:39:17.653Z,10.14
2022-11-14T03:41:47.045Z,10.00
2022-11-14T03:44:19.122Z,10.10
2022-11-14T03:46:48.559Z,9.78
2022-11-14T03:49:18.071Z,9.71
2022-11-14T03:51:49.401Z,10.04
2022-11-14T03:54:19.053Z,9.64
2022-11-14T03:56:48.591Z,9.82
2022-11-14T03:59:18.232Z,9.95
2022-11-14T04:01:49.035Z,10.14
2022-11-14T04:04:18.674Z,10.05
2022-11-14T04:06:49.608Z,10.11
2022-11-14T04:09:19.381Z,10.14
2022-11-14T04:11:48.923Z,10.10
2022-11-14T04:14:18.589Z,9.96
2022-11-14T04:16:48.235Z,9.90
2022-11-14T04:19:23.507Z,10.12
2022-11-14T04:21:54.928Z,9.99
2022-11-14T04:25:41.243Z,9.70
2022-11-14T04:28:18.583Z,9.88
2022-11-14T04:30:48.683Z,10.15
2022-11-14T04:33:18.085Z,9.86
2022-11-14T04:35:47.347Z,9.95
2022-11-14T04:38:17.926Z,10.11
2022-11-14T04:40:51.427Z,10.17
2022-11-14T04:43:21.394Z,9.85
2022-11-14T04:45:50.739Z,10.07
2022-11-14T04:48:23.708Z,10.11
2022-11-14T04:50:53.443Z,9.96
2022-11-14T04:53:24.371Z,9.75
2022-11-14T04:55:54.289Z,9.69
2022-11-14T04:58:23.789Z,9.88
2022-11-14T05:00:53.554Z,9.76
2022-11-14T05:03:23.278Z,10.18
2022-11-14T05:05:52.892Z,10.19
2022-11-14T05:08:24.624Z,9.98
2022-11-14T05:10:56.958Z,9.95
2022-11-14T05:13:26.644Z,9.98
2022-11-14T05:15:59.467Z,9.82
2022-11-14T05:18:29.680Z,10.03
2022-11-14T05:21:00.616Z,10.06
2022-11-14T05:23:31.589Z,10.06
2022-11-14T05:26:02.886Z,10.35
2022-11-14T05:28:32.766Z,10.21
2022-11-14T05:31:06.157Z,10.32
2022-11-14T05:33:36.079Z,10.11
2022-11-14T05:36:06.536Z,10.15
2022-11-14T05:38:37.502Z,10.06
2022-11-14T05:41:08.239Z,10.19
2022-11-14T05:43:38.370Z,10.12
2022-11-14T05:46:10.699Z,10.21
2022-11-14T05:48:40.514Z,9.82
2022-11-14T05:51:11.971Z,10.12
2022-11-14T05:53:43.663Z,10.05
2022-11-14T05:56:14.690Z,9.77
2022-11-14T05:58:44.275Z,9.88
2022-11-14T06:01:14.784Z,10.02
2022-11-14T06:03:45.814Z,9.96
2022-11-14T06:06:17.169Z,10.14
2022-11-14T06:08:48.563Z,9.81
2022-11-14T06:11:19.987Z,9.73
2022-11-14T06:13:49.830Z,9.54
2022-11-14T06:16:21.016Z,9.49
2022-11-14T06:18:50.567Z,9.46
2022-11-14T06:21:22.222Z,9.79
2022-11-14T06:23:53.499Z,9.96
2022-11-14T06:26:24.623Z,9.97
2022-11-14T06:28:54.801Z,9.84
2022-11-14T06:31:25.309Z,9.77
2022-11-14T06:33:55.169Z,10.07
2022-11-14T06:36:25.038Z,10.15
2022-11-14T06:38:56.021Z,10.05
2022-11-14T06:41:25.964Z,10.25
2022-11-14T06:43:55.478Z,10.27
2022-11-14T06:46:25.574Z,10.05
2022-11-14T06:48:55.182Z,10.38
2022-11-14T06:51:24.595Z,10.42
2022-11-14T06:53:55.578Z,10.53
2022-11-14T06:56:25.401Z,10.52
2022-11-14T06:58:55.996Z,10.36
2022-11-14T07:01:27.244Z,10.56
2022-11-14T07:03:58.854Z,10.16
2022-11-14T07:06:30.078Z,10.32
2022-11-14T07:09:01.146Z,10.11
2022-11-14T07:11:32.235Z,10.03
2022-11-14T07:14:02.991Z,10.32
2022-11-14T07:16:35.087Z,10.16
2022-11-14T07:19:06.835Z,10.35
2022-11-14T07:21:36.742Z,10.02
2022-11-14T07:24:08.946Z,10.25
2022-11-14T07:26:38.781Z,10.58
2022-11-14T07:29:08.561Z,10.47
2022-11-14T07:31:38.063Z,10.53
2022-11-14T07:34:07.967Z,10.68
2022-11-14T07:36:37.418Z,10.12
2022-11-14T07:39:08.414Z,10.30
2022-11-14T07:41:38.031Z,10.22
2022-11-14T07:44:07.432Z,9.77
2022-11-14T07:46:36.947Z,10.14
2022-11-14T07:49:06.590Z,10.24
2022-11-14T07:51:36.111Z,10.27
2022-11-14T07:54:05.684Z,10.23
2022-11-14T07:56:36.820Z,10.14
2022-11-14T07:59:06.613Z,10.09
2022-11-14T08:01:36.444Z,10.25
2022-11-14T08:04:08.007Z,10.29
2022-11-14T08:06:37.929Z,10.34
2022-11-14T08:09:08.583Z,10.59
2022-11-14T08:11:52.088Z,10.34
2022-11-14T08:14:21.565Z,10.49
2022-11-14T08:17:01.840Z,10.22
2022-11-14T08:19:31.287Z,10.36
2022-11-14T08:22:00.859Z,9.95
2022-11-14T08:24:30.230Z,10.40
2022-11-14T08:27:03.630Z,10.44
2022-11-14T08:29:33.246Z,10.38
2022-11-14T08:32:02.718Z,10.62
2022-11-14T08:34:32.248Z,10.36
2022-11-14T08:37:02.904Z,10.46
2022-11-14T08:39:32.881Z,10.30
2022-11-14T08:42:04.076Z,10.74
2022-11-14T08:44:34.275Z,10.69
2022-11-14T08:47:04.079Z,10.40
2022-11-14T08:49:33.431Z,10.46
2022-11-14T08:52:02.706Z,10.54
2022-11-14T08:54:34.221Z,10.24
2022-11-14T08:57:06.660Z,10.56
2022-11-14T08:59:36.293Z,10.54
2022-11-14T09:02:05.896Z,10.28
2022-11-14T09:04:35.327Z,10.40
2022-11-14T09:07:05.177Z,10.31
2022-11-14T09:09:34.547Z,10.52
2022-11-14T09:12:06.271Z,10.29
2022-11-14T09:14:38.348Z,10.77
2022-11-14T09:17:07.632Z,10.87
2022-11-14T09:19:37.398Z,11.15
2022-11-14T09:22:06.717Z,11.13
2022-11-14T09:24:37.117Z,11.36
2022-11-14T09:27:08.306Z,11.20
2022-11-14T09:29:37.889Z,11.17
2022-11-14T09:32:09.643Z,11.12
2022-11-14T09:34:43.037Z,11.28
2022-11-14T09:37:12.594Z,11.35
2022-11-14T09:39:41.899Z,11.42
2022-11-14T09:42:24.351Z,11.41
2022-11-14T09:44:59.805Z,11.31
2022-11-14T09:47:32.190Z,11.15
2022-11-14T09:50:07.339Z,11.40
2022-11-14T09:52:39.288Z,11.42
2022-11-14T09:55:13.682Z,11.08
2022-11-14T09:57:47.160Z,11.34
2022-11-14T10:00:19.056Z,11.40
2022-11-14T10:03:11.094Z,11.43
2022-11-14T10:06:09.337Z,11.63
2022-11-14T10:08:49.544Z,11.67
2022-11-14T10:11:23.724Z,11.86
2022-11-14T10:14:29.111Z,12.32
2022-11-14T10:17:10.691Z,11.86
2022-11-14T10:19:43.981Z,12.13
2022-11-14T10:22:23.278Z,12.42
2022-11-14T10:25:09.102Z,12.77
2022-11-14T10:27:43.865Z,12.83
2022-11-14T10:30:16.788Z,12.42
2022-11-14T10:33:04.642Z,12.97
2022-11-14T10:35:37.914Z,12.75
2022-11-14T10:38:13.760Z,12.35
2022-11-14T10:40:44.668Z,12.29
2022-11-14T10:43:20.672Z,12.29
2022-11-14T10:45:54.047Z,12.10
2022-11-14T10:48:32.207Z,12.10
2022-11-14T10:51:04.725Z,12.04
2022-11-14T10:53:43.196Z,12.01
2022-11-14T10:56:14.853Z,12.29
2022-11-14T10:58:49.070Z,12.72
2022-11-14T11:01:38.595Z,12.80
2022-11-14T11:04:22.977Z,13.03
2022-11-14T11:06:53.853Z,13.07
2022-11-14T11:09:45.911Z,12.91
2022-11-14T11:12:19.333Z,12.98
2022-11-14T11:14:50.476Z,13.41
2022-11-14T11:17:29.591Z,13.41
2022-11-14T11:20:26.570Z,13.15
2022-11-14T11:23:05.320Z,13.69
2022-11-14T11:25:36.004Z,13.39
2022-11-14T11:28:12.918Z,13.95
2022-11-14T11:30:42.910Z,13.95
2022-11-14T11:33:25.255Z,13.72
2022-11-14T11:35:58.092Z,13.98
2022-11-14T11:38:30.700Z,13.67
2022-11-14T11:41:15.528Z,13.80
2022-11-14T11:43:58.854Z,14.30
2022-11-14T11:46:36.287Z,14.55
2022-11-14T11:49:13.416Z,14.55
2022-11-14T11:51:44.359Z,14.14
2022-11-14T11:54:17.361Z,14.08
2022-11-14T11:56:49.061Z,13.87
2022-11-14T11:59:28.971Z,13.84
2022-11-14T12:01:58.304Z,14.30
2022-11-14T12:04:29.442Z,13.86
2022-11-14T12:07:05.876Z,13.95
2022-11-14T12:10:08.615Z,14.16
2022-11-14T12:12:39.834Z,13.88
2022-11-14T12:15:19.324Z,14.22
2022-11-14T12:18:13.931Z,14.59
2022-11-14T12:20:53.247Z,14.62
2022-11-14T12:23:45.787Z,14.35
2022-11-14T12:26:30.391Z,14.23
2022-11-14T12:29:14.023Z,14.33
2022-11-14T12:31:43.701Z,14.87
2022-11-14T12:34:20.806Z,14.35
2022-11-14T12:36:51.969Z,14.12
2022-11-14T12:39:27.107Z,13.94
2022-11-14T12:42:04.748Z,13.71
2022-11-14T12:44:36.896Z,13.80
2022-11-14T12:47:20.902Z,14.15
2022-11-14T12:50:06.540Z,13.78
2022-11-14T12:52:51.288Z,13.81
2022-11-14T12:55:55.884Z,14.09
2022-11-14T12:58:32.042Z,14.06
2022-11-14T13:01:12.635Z,13.94
2022-11-14T13:03:52.068Z,13.95
2022-11-14T13:06:25.149Z,13.84
2022-11-14T13:09:30.436Z,14.07
2022-11-14T13:12:18.654Z,14.13
2022-11-14T13:15:09.703Z,14.34
2022-11-14T13:17:56.722Z,14.49
2022-11-14T13:20:49.399Z,14.27
2022-11-14T13:23:51.698Z,14.19
2022-11-14T13:26:42.680Z,14.09
2022-11-14T13:30:00.311Z,14.40
2022-11-14T13:33:10.910Z,13.78
2022-11-14T13:36:05.096Z,13.65
2022-11-14T13:38:54.793Z,13.53
2022-11-14T13:41:47.499Z,13.63
2022-11-14T13:44:48.655Z,13.63
2022-11-14T13:47:36.575Z,13.53
2022-11-14T13:50:09.400Z,13.66
2022-11-14T13:52:43.864Z,13.49
2022-11-14T13:55:22.572Z,13.42
2022-11-14T13:58:05.989Z,13.43
2022-11-14T14:00:52.435Z,13.36
2022-11-14T14:03:30.488Z,13.19
2022-11-14T14:06:22.823Z,13.22
2022-11-14T14:09:11.650Z,13.04
2022-11-14T14:11:59.780Z,13.10
2022-11-14T14:14:40.055Z,13.29
2022-11-14T14:17:13.166Z,13.44
2022-11-14T14:19:53.308Z,13.50
2022-11-14T14:22:30.015Z,13.33
2022-11-14T14:25:04.891Z,13.27
2022-11-14T14:27:40.883Z,12.97
2022-11-14T14:30:12.458Z,12.84
2022-11-14T14:32:41.819Z,12.80
2022-11-14T14:35:24.942Z,12.86
2022-11-14T14:37:57.035Z,12.70
2022-11-14T14:40:28.511Z,12.63
2022-11-14T14:42:58.592Z,12.69
2022-11-14T14:45:29.630Z,12.75
2022-11-14T14:48:04.250Z,12.89
2022-11-14T14:50:38.331Z,12.71
2022-11-14T14:53:09.774Z,12.78
2022-11-14T14:55:39.104Z,12.84
2022-11-14T14:58:25.016Z,12.70
2022-11-14T15:00:56.101Z,12.87
2022-11-14T15:03:25.852Z,12.83
2022-11-14T15:06:03.021Z,12.74
2022-11-14T15:08:37.570Z,12.70
2022-11-14T15:11:08.400Z,12.47
2022-11-14T15:13:39.340Z,12.56
2022-11-14T15:16:10.289Z,12.71
2022-11-14T15:18:40.270Z,12.66
2022-11-14T15:21:18.230Z,12.27
2022-11-14T15:23:48.904Z,12.42
2022-11-14T15:26:20.218Z,12.24
2022-11-14T15:28:50.815Z,12.15
2022-11-14T15:31:21.544Z,12.54
2022-11-14T15:34:03.937Z,12.34
2022-11-14T15:36:33.359Z,12.30
2022-11-14T15:39:22.715Z,12.38
2022-11-14T15:41:52.053Z,12.51
2022-11-14T15:44:33.476Z,12.29
2022-11-14T15:47:03.955Z,12.49
2022-11-14T15:49:34.085Z,12.58
2022-11-14T15:52:05.759Z,12.20
2022-11-14T15:54:39.531Z,12.09
2022-11-14T15:57:14.546Z,12.21
2022-11-14T15:59:44.266Z,12.11
2022-11-14T16:02:16.537Z,12.00
2022-11-14T16:04:47.966Z,11.84
2022-11-14T16:07:19.126Z,11.84
2022-11-14T16:09:50.530Z,12.11
2022-11-14T16:12:20.427Z,12.25
2022-11-14T16:14:50.235Z,12.20
2022-11-14T16:17:23.373Z,12.28
2022-11-14T16:19:52.704Z,12.02
2022-11-14T16:22:22.018Z,11.99
2022-11-14T16:24:55.475Z,11.92
2022-11-14T16:27:24.792Z,12.12
2022-11-14T16:29:54.173Z,12.07
2022-11-14T16:32:26.818Z,12.27
2022-11-14T16:34:57.021Z,12.13
2022-11-14T16:37:26.365Z,12.11
2022-11-14T16:39:57.361Z,12.17
2022-11-14T16:42:26.869Z,11.98
2022-11-14T16:45:02.221Z,11.88
2022-11-14T16:47:33.108Z,11.98
2022-11-14T16:50:02.832Z,12.22
2022-11-14T16:52:32.449Z,12.26
2022-11-14T16:55:03.802Z,12.01
2022-11-14T16:57:33.241Z,11.91
2022-11-14T17:00:03.061Z,12.13
2022-11-14T17:02:35.070Z,12.11
2022-11-14T17:05:04.852Z,12.21
2022-11-14T17:07:34.314Z,12.01
2022-11-14T17:10:05.675Z,11.91
2022-11-14T17:12:35.580Z,11.93
2022-11-14T17:15:05.674Z,11.92
2022-11-14T17:17:35.606Z,12.05
2022-11-14T17:20:07.459Z,12.01
2022-11-14T17:22:37.563Z,11.94
2022-11-14T17:25:09.662Z,12.17
2022-11-14T17:27:39.153Z,11.83
2022-11-14T17:30:11.214Z,11.92
2022-11-14T17:32:40.728Z,11.96
2022-11-14T17:35:11.204Z,12.15
2022-11-14T17:37:40.725Z,11.88
2022-11-14T17:40:15.684Z,11.86
2022-11-14T17:42:45.575Z,11.75
2022-11-14T17:45:14.965Z,11.65
2022-11-14T17:47:44.692Z,11.66
2022-11-14T17:50:14.223Z,11.79
2022-11-14T17:52:43.761Z,11.78
2022-11-14T17:55:14.862Z,11.97
2022-11-14T17:57:46.853Z,12.06
2022-11-14T18:00:17.660Z,11.79
2022-11-14T18:02:47.828Z,11.88
2022-11-14T18:05:25.352Z,11.95
2022-11-14T18:07:57.210Z,11.74
2022-11-14T18:10:28.101Z,11.34
2022-11-14T18:12:57.483Z,11.83
2022-11-14T18:15:28.343Z,11.75
2022-11-14T18:17:59.400Z,11.69
2022-11-14T18:20:29.247Z,11.81
2022-11-14T18:22:58.756Z,11.65
2022-11-14T18:25:31.557Z,11.84
2022-11-14T18:28:01.159Z,11.84
2022-11-14T18:30:46.018Z,11.73
2022-11-14T18:33:15.554Z,11.50
2022-11-14T18:35:45.329Z,11.52
2022-11-14T18:38:15.518Z,11.58
2022-11-14T18:40:47.053Z,11.85
2022-11-14T18:43:18.028Z,11.85
2022-11-14T18:45:47.810Z,11.88
2022-11-14T18:48:17.612Z,11.84
2022-11-14T18:50:51.423Z,11.75
2022-11-14T18:53:21.980Z,11.30
2022-11-14T18:55:53.780Z,10.87
2022-11-14T18:58:23.452Z,11.18
2022-11-14T19:00:52.487Z,11.25
2022-11-14T19:03:22.115Z,11.44
2022-11-14T19:05:51.683Z,11.18
2022-11-14T19:08:21.036Z,11.39
2022-11-14T19:10:54.160Z,11.30
2022-11-14T19:13:26.121Z,11.42
2022-11-14T19:15:56.014Z,11.30
2022-11-14T19:18:26.871Z,11.13
2022-11-14T19:21:00.730Z,10.88
2022-11-14T19:23:31.492Z,10.75
2022-11-14T19:26:04.074Z,10.89
2022-11-14T19:28:34.572Z,10.88
2022-11-14T19:31:04.401Z,11.04
2022-11-14T19:37:00.025Z,11.22
2022-11-14T19:39:33.003Z,11.06
2022-11-14T19:42:03.806Z,11.09
2022-11-14T19:44:33.277Z,11.26
2022-11-14T19:47:04.066Z,11.09
2022-11-14T19:49:33.782Z,11.10
2022-11-14T19:52:03.837Z,11.08
2022-11-14T19:54:34.808Z,11.23
2022-11-14T19:57:06.098Z,11.20
2022-11-14T19:59:35.843Z,11.32
2022-11-14T20:02:05.502Z,11.25
2022-11-14T20:04:38.007Z,11.48
2022-11-14T20:07:08.498Z,11.48
2022-11-14T20:09:39.236Z,11.32
2022-11-14T20:12:10.426Z,10.48
2022-11-14T20:14:40.509Z,11.15
2022-11-14T20:17:10.835Z,11.12
2022-11-14T20:19:43.558Z,11.46
2022-11-14T20:22:13.235Z,11.25
2022-11-14T20:24:44.086Z,11.15
2022-11-14T20:27:15.876Z,11.16
2022-11-14T20:29:47.295Z,11.37
2022-11-14T20:32:17.005Z,11.33
2022-11-14T20:34:46.647Z,11.24
2022-11-14T20:37:17.864Z,11.12
2022-11-14T20:39:47.154Z,10.99
2022-11-14T20:42:18.451Z,11.05
2022-11-14T20:44:48.354Z,11.28
2022-11-14T20:47:18.596Z,11.38
2022-11-14T20:49:48.106Z,11.58
2022-11-14T20:52:18.792Z,11.05
2022-11-14T20:54:48.384Z,11.15
2022-11-14T20:57:20.144Z,10.63
2022-11-14T20:59:50.176Z,10.75
2022-11-14T21:02:20.881Z,10.84
2022-11-14T21:04:51.665Z,10.54
2022-11-14T21:07:23.613Z,10.63
2022-11-14T21:10:14.454Z,10.81
2022-11-14T21:13:06.393Z,10.81
2022-11-14T21:15:36.686Z,10.51
2022-11-14T21:18:06.786Z,10.63
2022-11-14T21:20:36.557Z,11.06
2022-11-14T21:23:05.863Z,11.14
2022-11-14T21:25:35.630Z,10.93
2022-11-14T21:28:24.483Z,10.65
2022-11-14T21:30:58.783Z,10.78
2022-11-14T21:33:30.169Z,10.98
2022-11-14T21:36:16.562Z,11.28
2022-11-14T21:38:53.055Z,11.15
2022-11-14T21:41:24.061Z,11.21
2022-11-14T21:43:57.126Z,11.04
2022-11-14T21:46:27.013Z,10.90
2022-11-14T21:48:57.439Z,10.73
2022-11-14T21:51:29.637Z,10.59
2022-11-14T21:54:00.012Z,11.00
2022-11-14T21:56:31.145Z,10.24
2022-11-14T21:59:15.872Z,10.76
2022-11-14T22:02:10.148Z,10.81
2022-11-14T22:04:40.468Z,10.93
2022-11-14T22:07:10.602Z,10.97
2022-11-14T22:09:45.085Z,10.84
2022-11-14T22:12:14.895Z,10.50
2022-11-14T22:14:46.618Z,10.49
2022-11-14T22:17:16.029Z,10.97
2022-11-14T22:19:45.935Z,11.06
2022-11-14T22:22:15.210Z,11.23
2022-11-14T22:24:45.364Z,11.10
2022-11-14T22:27:15.020Z,10.76
2022-11-14T22:29:45.930Z,10.96
2022-11-14T22:32:15.613Z,10.92
2022-11-14T22:34:45.123Z,10.37
2022-11-14T22:37:14.459Z,10.75
2022-11-14T22:39:43.964Z,10.86
2022-11-14T22:42:13.841Z,10.47
2022-11-14T22:44:43.139Z,10.63
2022-11-14T22:47:14.219Z,10.91
2022-11-14T22:49:44.157Z,10.97
2022-11-14T22:52:13.855Z,10.93
2022-11-14T22:54:43.383Z,11.21
2022-11-14T22:57:12.463Z,10.92
2022-11-14T22:59:42.062Z,11.03
2022-11-14T23:02:12.992Z,11.04
2022-11-14T23:04:42.581Z,10.53
2022-11-14T23:07:12.160Z,10.35
2022-11-14T23:09:43.713Z,10.52
2022-11-14T23:12:15.790Z,10.55
2022-11-14T23:14:45.569Z,10.74
2022-11-14T23:17:19.538Z,10.57
2022-11-14T23:19:49.100Z,10.80
2022-11-14T23:22:19.012Z,10.81
2022-11-14T23:24:50.275Z,10.44
2022-11-14T23:27:19.876Z,10.22
2022-11-14T23:29:50.501Z,10.02
2022-11-14T23:32:21.735Z,10.25
2022-11-14T23:34:51.231Z,10.20
2022-11-14T23:37:22.899Z,10.56
2022-11-14T23:39:52.507Z,10.47
2022-11-14T23:42:22.159Z,10.76
2022-11-14T23:44:51.662Z,10.33
2022-11-14T23:47:22.567Z,9.80
2022-11-14T23:49:52.250Z,9.78
2022-11-14T23:52:22.343Z,9.74
2022-11-14T23:54:51.758Z,9.42
2022-11-14T23:57:21.988Z,10.13
2022-11-14T23:59:52.321Z,9.88
